Terminal Aerodrome Forecast
Issued by NWS North Platte, NE

Home | Current Version | Previous Version | Text Only | Print | Product List | Glossary Off
Versions: 1 2 3 4 5 6 7 8 9 10 11 12 13 14 15 16 17 18

000
FTUS43 KLBF 181120
TAFVTN
TAF
KVTN 181120Z 1812/1912 28006KT P6SM FEW250
     FM181600 31010KT P6SM SKC
     FM182100 34011KT P6SM SKC
     FM190100 VRB06KT P6SM SKC=

USA.gov is the U.S. government's official web portal to all federal, state and local government web resources and services.